createdAt,value
2022-08-22T00:02:53.997Z,15.90
2022-08-22T00:03:18.983Z,13.10
2022-08-22T00:09:37.895Z,13.10
2022-08-22T00:16:00.616Z,13.00
2022-08-22T00:22:09.460Z,12.90
2022-08-22T00:28:21.374Z,12.80
2022-08-22T00:34:53.862Z,12.70
2022-08-22T00:41:20.438Z,12.60
2022-08-22T00:47:46.006Z,12.50
2022-08-22T00:54:18.025Z,12.40
2022-08-22T01:00:27.364Z,12.20
2022-08-22T01:06:47.470Z,12.20
2022-08-22T01:12:52.240Z,12.50
2022-08-22T01:19:05.951Z,12.40
2022-08-22T01:25:21.466Z,12.30
2022-08-22T01:31:50.689Z,12.20
2022-08-22T01:38:24.702Z,12.00
2022-08-22T01:44:56.909Z,11.90
2022-08-22T01:51:25.383Z,11.80
2022-08-22T01:57:30.241Z,11.80
2022-08-22T02:03:36.623Z,11.60
2022-08-22T02:10:14.191Z,11.60
2022-08-22T02:16:35.270Z,11.60
2022-08-22T02:22:55.136Z,11.50
2022-08-22T02:29:18.731Z,11.30
2022-08-22T02:35:48.319Z,11.30
2022-08-22T02:42:14.540Z,11.40
2022-08-22T02:48:47.911Z,11.30
2022-08-22T02:54:54.514Z,11.20
2022-08-22T03:01:02.164Z,11.30
2022-08-22T03:07:16.523Z,11.30
2022-08-22T03:13:26.790Z,11.10
2022-08-22T03:19:45.333Z,11.00
2022-08-22T03:25:47.082Z,10.80
2022-08-22T03:32:15.563Z,10.90
2022-08-22T03:38:20.288Z,10.80
2022-08-22T03:44:47.566Z,10.80
2022-08-22T03:51:19.125Z,10.60
2022-08-22T03:57:20.870Z,10.60
2022-08-22T04:03:56.730Z,10.60
2022-08-22T04:10:25.790Z,10.50
2022-08-22T04:16:56.300Z,10.50
2022-08-22T04:23:09.739Z,10.50
2022-08-22T04:29:31.515Z,10.60
2022-08-22T04:35:39.405Z,10.70
2022-08-22T04:41:46.784Z,10.60
2022-08-22T04:48:07.708Z,10.60
2022-08-22T04:54:25.325Z,10.60
2022-08-22T05:00:55.062Z,10.70
2022-08-22T05:07:05.347Z,10.80
2022-08-22T05:13:12.801Z,10.90
2022-08-22T05:19:27.124Z,11.00
2022-08-22T05:25:36.381Z,11.40
2022-08-22T05:31:45.734Z,12.10
2022-08-22T05:37:52.061Z,12.60
2022-08-22T05:43:57.615Z,13.10
2022-08-22T05:50:10.068Z,13.20
2022-08-22T05:56:35.266Z,13.50
2022-08-22T06:02:55.758Z,13.80
2022-08-22T06:09:12.902Z,14.10
2022-08-22T06:15:21.016Z,14.50
2022-08-22T06:21:35.420Z,14.80
2022-08-22T06:27:41.704Z,15.00
2022-08-22T06:33:46.237Z,14.90
2022-08-22T06:39:52.953Z,15.10
2022-08-22T06:45:54.981Z,15.10
2022-08-22T06:52:15.002Z,15.20
2022-08-22T06:58:37.007Z,15.40
2022-08-22T07:04:39.937Z,15.50
2022-08-22T07:10:45.415Z,16.40
2022-08-22T07:16:55.136Z,17.30
2022-08-22T07:23:10.128Z,17.80
2022-08-22T07:29:32.578Z,17.50
2022-08-22T07:35:44.160Z,17.70
2022-08-22T07:42:02.709Z,17.70
2022-08-22T07:48:04.535Z,17.70
2022-08-22T07:54:09.914Z,17.70
2022-08-22T08:00:17.083Z,17.90
2022-08-22T08:06:25.084Z,18.10
2022-08-22T08:12:39.992Z,18.40
2022-08-22T08:18:44.710Z,18.70
2022-08-22T08:24:48.116Z,19.00
2022-08-22T08:30:57.696Z,19.20
2022-08-22T08:37:13.914Z,19.40
2022-08-22T08:43:28.075Z,19.70
2022-08-22T08:49:56.312Z,19.80
2022-08-22T08:56:02.102Z,20.00
2022-08-22T09:02:23.613Z,20.50
2022-08-22T09:08:31.412Z,20.80
2022-08-22T09:15:03.747Z,21.20
2022-08-22T09:21:45.082Z,21.50
2022-08-22T09:28:17.135Z,21.70
2022-08-22T09:35:01.511Z,22.20
2022-08-22T09:41:24.652Z,22.90
2022-08-22T09:47:39.859Z,23.10
2022-08-22T09:54:10.252Z,23.30
2022-08-22T10:00:22.214Z,23.70
2022-08-22T10:06:30.851Z,24.10
2022-08-22T10:13:00.802Z,24.20
2022-08-22T10:19:20.061Z,24.40
2022-08-22T10:25:48.317Z,24.70
2022-08-22T10:31:59.475Z,24.70
2022-08-22T10:38:18.996Z,25.00
2022-08-22T10:44:27.508Z,25.10
2022-08-22T10:50:40.840Z,25.20
2022-08-22T10:57:23.250Z,25.50
2022-08-22T11:03:52.969Z,25.40
2022-08-22T11:10:05.051Z,25.40
2022-08-22T11:16:13.070Z,25.10
2022-08-22T11:22:39.282Z,25.10
2022-08-22T11:29:21.468Z,25.70
2022-08-22T11:35:26.062Z,26.30
2022-08-22T11:41:52.305Z,26.30
2022-08-22T11:48:12.128Z,26.00
2022-08-22T11:54:31.031Z,26.20
2022-08-22T12:00:39.303Z,26.80
2022-08-22T12:06:58.684Z,27.20
2022-08-22T12:13:13.184Z,27.60
2022-08-22T12:19:32.725Z,27.50
2022-08-22T12:26:05.931Z,27.80
2022-08-22T12:32:39.408Z,27.70
2022-08-22T12:39:18.056Z,27.70
2022-08-22T12:45:25.545Z,27.80
2022-08-22T12:51:50.459Z,27.90
2022-08-22T12:58:09.616Z,27.90
2022-08-22T13:04:19.327Z,27.90
2022-08-22T13:10:44.815Z,28.20
2022-08-22T13:16:51.648Z,28.40
2022-08-22T13:22:54.411Z,28.50
2022-08-22T13:29:24.033Z,28.60
2022-08-22T13:35:32.498Z,28.40
2022-08-22T13:41:46.416Z,28.10
2022-08-22T13:47:59.345Z,27.90
2022-08-22T13:54:12.041Z,27.80
2022-08-22T14:00:25.378Z,27.80
2022-08-22T14:06:41.617Z,27.70
2022-08-22T14:13:11.915Z,27.90
2022-08-22T14:19:27.681Z,27.90
2022-08-22T14:25:35.837Z,28.00
2022-08-22T14:31:37.714Z,28.00
2022-08-22T14:37:44.687Z,28.30
2022-08-22T14:43:53.343Z,28.40
2022-08-22T14:49:59.719Z,28.10
2022-08-22T14:56:24.786Z,28.50
2022-08-22T15:02:30.348Z,28.80
2022-08-22T15:08:56.831Z,29.00
2022-08-22T15:15:04.292Z,29.70
2022-08-22T15:21:18.405Z,29.50
2022-08-22T15:27:20.969Z,29.10
2022-08-22T15:33:27.420Z,28.80
2022-08-22T15:39:37.998Z,28.20
2022-08-22T15:45:40.232Z,27.60
2022-08-22T15:51:44.425Z,27.20
2022-08-22T15:58:02.061Z,27.30
2022-08-22T16:04:12.668Z,27.20
2022-08-22T16:10:20.292Z,27.20
2022-08-22T16:16:25.525Z,26.90
2022-08-22T16:22:56.487Z,26.90
2022-08-22T16:29:12.523Z,27.70
2022-08-22T16:35:56.788Z,29.10
2022-08-22T16:42:14.054Z,28.10
2022-08-22T16:48:32.002Z,27.80
2022-08-22T16:54:46.811Z,27.50
2022-08-22T17:00:58.022Z,27.50
2022-08-22T17:07:26.455Z,30.20
2022-08-22T17:14:01.162Z,31.60
2022-08-22T17:20:24.192Z,31.60
2022-08-22T17:26:54.283Z,31.50
2022-08-22T17:33:13.664Z,31.10
2022-08-22T17:39:33.853Z,30.50
2022-08-22T17:45:55.328Z,29.80
2022-08-22T17:52:33.635Z,28.90
2022-08-22T17:58:45.169Z,26.80
2022-08-22T18:05:06.978Z,25.30
2022-08-22T18:11:40.227Z,24.50
2022-08-22T18:17:50.993Z,23.90
2022-08-22T18:24:05.140Z,23.50
2022-08-22T18:30:15.609Z,23.00
2022-08-22T18:36:17.330Z,22.70
2022-08-22T18:42:29.919Z,22.40
2022-08-22T18:48:54.436Z,22.40
2022-08-22T18:55:11.158Z,22.40
2022-08-22T19:01:24.867Z,22.30
2022-08-22T19:07:41.241Z,22.10
2022-08-22T19:14:18.586Z,21.90
2022-08-22T19:20:49.442Z,21.60
2022-08-22T19:27:11.153Z,21.40
2022-08-22T19:33:34.173Z,21.20
2022-08-22T19:39:42.347Z,20.90
2022-08-22T19:45:44.279Z,20.80
2022-08-22T19:52:23.067Z,20.60
2022-08-22T19:58:46.679Z,20.50
2022-08-22T20:05:03.495Z,20.20
2022-08-22T20:11:16.512Z,20.30
2022-08-22T20:17:24.126Z,20.30
2022-08-22T20:23:30.250Z,20.30
2022-08-22T20:29:35.932Z,20.20
2022-08-22T20:35:46.519Z,20.20
2022-08-22T20:42:05.854Z,20.10
2022-08-22T20:48:11.015Z,20.10
2022-08-22T20:54:23.939Z,20.30
2022-08-22T21:00:31.702Z,20.10
2022-08-22T21:06:38.426Z,20.00
2022-08-22T21:12:40.268Z,20.00
2022-08-22T21:18:48.446Z,19.90
2022-08-22T21:24:50.349Z,19.80
2022-08-22T21:30:52.269Z,19.80
2022-08-22T21:36:59.655Z,19.80
2022-08-22T21:43:13.606Z,19.80
2022-08-22T21:49:25.728Z,19.60
2022-08-22T21:55:30.505Z,19.50
2022-08-22T22:01:36.347Z,19.40
2022-08-22T22:07:46.601Z,19.40
2022-08-22T22:13:48.974Z,19.40
2022-08-22T22:19:50.825Z,19.60
2022-08-22T22:25:54.515Z,19.60
2022-08-22T22:31:57.378Z,19.70
2022-08-22T22:37:59.411Z,19.60
2022-08-22T22:44:01.515Z,19.60
2022-08-22T22:50:04.203Z,19.40
2022-08-22T22:56:09.350Z,19.40
2022-08-22T23:02:15.170Z,19.40
2022-08-22T23:08:16.963Z,19.40
2022-08-22T23:14:18.825Z,19.50
2022-08-22T23:20:20.667Z,19.40
2022-08-22T23:26:22.637Z,19.30
2022-08-22T23:32:24.583Z,19.30
2022-08-22T23:38:26.507Z,19.40
2022-08-22T23:44:31.714Z,19.40
2022-08-22T23:50:34.785Z,19.40
2022-08-22T23:56:41.302Z,19.50
